메인 페이지
METAR-TAF:

METAR-TAF

공항 :

Tirupati, 인도

위도: 13-38-16N, 경도: 79-32-50E, 고도: 107m

현재 날씨관측

예보는 7 시간 39분 전, 14:00시(UTC)에 발표되었습니다.
남남서7kt
온도 32°C
습도 56%
기압 1003 hPa
시정: 6000m
고도 2000ft 상공 구름 조금

METAR: VOTP 281400Z 20007KT 6000 FEW020 32/22 Q1003

시각: 03:09 (21:39 UTC)

예보

예보는 15 시간 39분 전, 06:00시(UTC)에 발표되었습니다.
예보 대상 시간: 28일 09시부터 28일 18시까지 (UTC)
북동8kt
시정: 6000m
고도 2000ft 상공 구름 보통
일시적
28일 10시부터 28일 16시까지 (UTC)
시정: 3000m
고도 3000ft 상공 구름 조금, 적란운.
고도 8000ft 상공 구름 많음
뇌우, 비

TAF: VOTP 280600Z 2809/2818 05008KT 6000 SCT020 TEMPO 2810/2816 3000 TSRA FEW030CB BKN080

4,000개 이상의 공항 관측 자료 및 예보 (METAR 및 TAF 보고).

지도상에서 검색 가능한 기상관측소가 노란 점과 빨간 점으로 표시되어 있습니다.

기상관측소 명을 보려면 표시 위로 마우스를 이동하세요.

날씨 관측과 예보를 보려면 클릭하세요.

지도 변경 : 확대하려면 엑스 표시가 있는 녹색 버튼, 축소하려면 빼기 표시가 있는 녹색 버튼, 다음 페이지의 지도를 보려면 녹색 화살표를 클릭하세요.


METAR-TAF: